Wetterdaten: Woche 18.08.14 - 24.08.14 (KW34)
Datum Zeit Temp. A. Feuchte A. Luftdruck Regen Wind Richtung Sonnenschein ET UV Solar Taupunkt Windchill Windben
18.08.2014 00:00 14,8 C 73 % 1010,4 hPa 0,0 l/m 4,9 km/h (1 Bft) SW 0,00 h 0,025 mm 0,0 UV-I 0 W/m 10,0 C 14,7 C 8,9 km/h (2 Bft)
18.08.2014 01:00 14,8 C 73 % 1010,1 hPa 0,0 l/m 5,4 km/h (1 Bft) S-SW 0,00 h 0,025 mm 0,0 UV-I 0 W/m 10,1 C 14,7 C 8,9 km/h (2 Bft)
18.08.2014 02:00 14,6 C 75 % 1009,6 hPa 0,0 l/m 7,0 km/h (2 Bft) SW 0,00 h 0,025 mm 0,0 UV-I 0 W/m 10,2 C 13,9 C 12,1 km/h (2 Bft)
18.08.2014 03:00 14,0 C 78 % 1009,3 hPa 0,0 l/m 6,1 km/h (2 Bft) S-SW 0,00 h 0,025 mm 0,0 UV-I 0 W/m 10,2 C 13,8 C 10,8 km/h (2 Bft)
18.08.2014 04:00 13,7 C 79 % 1009,0 hPa 0,0 l/m 8,6 km/h (2 Bft) S-SW 0,00 h 0,000 mm 0,0 UV-I 0 W/m 10,2 C 12,4 C 14,3 km/h (3 Bft)
18.08.2014 05:00 13,6 C 79 % 1009,0 hPa 0,0 l/m 9,3 km/h (2 Bft) S-SW 0,00 h 0,025 mm 0,0 UV-I 0 W/m 10,1 C 12,0 C 14,8 km/h (3 Bft)
18.08.2014 06:00 13,3 C 80 % 1009,1 hPa 0,0 l/m 8,2 km/h (2 Bft) S 0,00 h 0,025 mm 0,0 UV-I 17 W/m 9,9 C 12,2 C 12,9 km/h (3 Bft)
18.08.2014 07:00 13,6 C 79 % 1009,0 hPa 0,0 l/m 8,3 km/h (2 Bft) S 0,92 h 0,025 mm 0,5 UV-I 74 W/m 10,1 C 12,5 C 12,6 km/h (3 Bft)
18.08.2014 08:00 14,0 C 78 % 1008,9 hPa 0,0 l/m 9,4 km/h (2 Bft) S 1,00 h 0,051 mm 0,7 UV-I 128 W/m 10,3 C 12,4 C 14,8 km/h (3 Bft)
18.08.2014 09:00 14,5 C 77 % 1008,8 hPa 0,0 l/m 10,2 km/h (2 Bft) S 1,00 h 0,102 mm 1,3 UV-I 204 W/m 10,5 C 12,6 C 16,8 km/h (3 Bft)
18.08.2014 10:00 15,9 C 68 % 1008,7 hPa 0,0 l/m 12,1 km/h (2 Bft) W-SW 1,00 h 0,127 mm 2,4 UV-I 322 W/m 10,0 C 13,4 C 19,0 km/h (3 Bft)
18.08.2014 11:00 16,3 C 62 % 1008,6 hPa 0,0 l/m 16,0 km/h (3 Bft) W-SW 1,00 h 0,229 mm 2,5 UV-I 282 W/m 9,1 C 12,6 C 25,0 km/h (4 Bft)
18.08.2014 12:00 17,1 C 62 % 1008,3 hPa 0,0 l/m 15,4 km/h (3 Bft) SW 1,00 h 0,229 mm 3,8 UV-I 479 W/m 9,6 C 13,7 C 23,7 km/h (4 Bft)
18.08.2014 13:00 17,2 C 62 % 1008,1 hPa 0,0 l/m 14,0 km/h (3 Bft) W-SW 1,00 h 0,330 mm 2,7 UV-I 296 W/m 9,7 C 14,3 C 22,3 km/h (4 Bft)
18.08.2014 14:00 17,0 C 61 % 1007,9 hPa 0,0 l/m 15,1 km/h (3 Bft) W-SW 1,00 h 0,229 mm 2,3 UV-I 275 W/m 9,3 C 13,7 C 23,5 km/h (4 Bft)
18.08.2014 15:00 17,3 C 59 % 1008,0 hPa 0,0 l/m 16,7 km/h (3 Bft) W-SW 1,00 h 0,229 mm 2,4 UV-I 296 W/m 9,2 C 13,7 C 26,2 km/h (4 Bft)
18.08.2014 16:00 17,4 C 59 % 1008,2 hPa 0,0 l/m 15,3 km/h (3 Bft) W-SW 0,97 h 0,254 mm 1,5 UV-I 188 W/m 9,3 C 14,1 C 23,6 km/h (4 Bft)
18.08.2014 17:00 15,7 C 69 % 1009,0 hPa 0,0 l/m 15,5 km/h (3 Bft) W 0,12 h 0,178 mm 0,5 UV-I 30 W/m 9,8 C 12,0 C 23,7 km/h (4 Bft)
18.08.2014 18:00 14,3 C 76 % 1009,5 hPa 0,0 l/m 12,5 km/h (3 Bft) W 0,87 h 0,076 mm 0,5 UV-I 88 W/m 10,1 C 11,4 C 19,3 km/h (3 Bft)
18.08.2014 19:00 14,2 C 76 % 1009,9 hPa 0,0 l/m 10,5 km/h (2 Bft) W 0,00 h 0,076 mm 0,0 UV-I 17 W/m 9,9 C 12,1 C 15,9 km/h (3 Bft)
18.08.2014 20:00 12,4 C 89 % 1010,3 hPa 0,4 l/m 6,8 km/h (2 Bft) W-SW 0,00 h 0,051 mm 0,0 UV-I 0 W/m 10,6 C 11,7 C 10,6 km/h (2 Bft)
18.08.2014 21:00 11,7 C 91 % 1010,5 hPa 0,0 l/m 4,5 km/h (1 Bft) W-SW 0,00 h 0,000 mm 0,0 UV-I 0 W/m 10,3 C 11,5 C 7,7 km/h (2 Bft)
18.08.2014 22:00 10,9 C 92 % 1010,8 hPa 0,0 l/m 3,2 km/h (1 Bft) W 0,00 h 0,000 mm 0,0 UV-I 0 W/m 9,7 C 10,9 C 5,9 km/h (2 Bft)
18.08.2014 23:00 10,4 C 93 % 1011,0 hPa 0,0 l/m 3,6 km/h (1 Bft) S 0,00 h 0,000 mm 0,0 UV-I 0 W/m 9,3 C 10,4 C 6,1 km/h (2 Bft)
19.08.2014 00:00 10,4 C 94 % 1011,5 hPa 0,0 l/m 3,1 km/h (1 Bft) S 0,00 h 0,000 mm 0,0 UV-I 0 W/m 9,5 C 10,4 C 5,4 km/h (1 Bft)
19.08.2014 01:00 10,1 C 94 % 1011,4 hPa 0,0 l/m 2,0 km/h (1 Bft) S 0,00 h 0,000 mm 0,0 UV-I 0 W/m 9,2 C 10,1 C 3,7 km/h (1 Bft)
19.08.2014 02:00 9,4 C 96 % 1011,6 hPa 0,0 l/m 1,7 km/h (1 Bft) S-SO 0,00 h 0,000 mm 0,0 UV-I 0 W/m 8,8 C 9,4 C 3,3 km/h (1 Bft)
19.08.2014 03:00 9,7 C 96 % 1011,4 hPa 0,0 l/m 1,6 km/h (1 Bft) S 0,00 h 0,000 mm 0,0 UV-I 0 W/m 9,1 C 9,7 C 3,1 km/h (1 Bft)
19.08.2014 04:00 10,3 C 95 % 1011,2 hPa 0,0 l/m 2,5 km/h (1 Bft) S 0,00 h 0,000 mm 0,0 UV-I 0 W/m 9,5 C 10,3 C 4,3 km/h (1 Bft)
19.08.2014 05:00 10,2 C 95 % 1011,3 hPa 0,0 l/m 3,3 km/h (1 Bft) S 0,00 h 0,000 mm 0,0 UV-I 0 W/m 9,3 C 10,2 C 5,4 km/h (1 Bft)
19.08.2014 06:00 9,7 C 95 % 1011,6 hPa 0,0 l/m 0,1 km/h (0 Bft) S 0,00 h 0,000 mm 0,0 UV-I 15 W/m 8,9 C 9,7 C 0,9 km/h (0 Bft)
19.08.2014 07:00 9,8 C 96 % 1012,1 hPa 0,0 l/m 1,1 km/h (0 Bft) S 0,13 h 0,000 mm 0,5 UV-I 34 W/m 9,1 C 9,8 C 2,6 km/h (1 Bft)
19.08.2014 08:00 11,3 C 92 % 1012,2 hPa 0,0 l/m 4,7 km/h (1 Bft) SW 0,97 h 0,025 mm 0,8 UV-I 121 W/m 10,0 C 11,1 C 7,8 km/h (2 Bft)
19.08.2014 09:00 12,8 C 85 % 1012,1 hPa 0,0 l/m 4,4 km/h (1 Bft) S-SW 1,00 h 0,051 mm 1,3 UV-I 316 W/m 10,3 C 12,8 C 7,4 km/h (2 Bft)
19.08.2014 10:00 14,9 C 76 % 1012,2 hPa 0,0 l/m 4,8 km/h (1 Bft) W 1,00 h 0,178 mm 2,6 UV-I 481 W/m 10,7 C 14,7 C 7,8 km/h (2 Bft)
19.08.2014 11:00 15,2 C 73 % 1012,3 hPa 0,0 l/m 6,2 km/h (2 Bft) W-NW 1,00 h 0,254 mm 3,0 UV-I 319 W/m 10,4 C 14,8 C 10,0 km/h (2 Bft)
19.08.2014 12:00 16,7 C 67 % 1012,3 hPa 0,0 l/m 8,2 km/h (2 Bft) S 1,00 h 0,203 mm 4,3 UV-I 617 W/m 10,4 C 15,7 C 12,8 km/h (3 Bft)
19.08.2014 13:00 16,7 C 64 % 1011,9 hPa 0,0 l/m 6,3 km/h (2 Bft) W-NW 1,00 h 0,381 mm 2,8 UV-I 326 W/m 9,8 C 16,3 C 10,0 km/h (2 Bft)
19.08.2014 14:00 18,0 C 61 % 1011,5 hPa 0,0 l/m 7,4 km/h (2 Bft) SW 1,00 h 0,229 mm 3,9 UV-I 549 W/m 10,4 C 17,4 C 12,3 km/h (3 Bft)
19.08.2014 15:00 19,1 C 55 % 1011,0 hPa 0,0 l/m 8,6 km/h (2 Bft) SW 1,00 h 0,356 mm 3,5 UV-I 505 W/m 9,9 C 18,1 C 14,0 km/h (3 Bft)
19.08.2014 16:00 19,1 C 52 % 1010,8 hPa 0,0 l/m 9,3 km/h (2 Bft) S 1,00 h 0,356 mm 2,2 UV-I 366 W/m 9,1 C 17,9 C 15,5 km/h (3 Bft)
19.08.2014 17:00 19,0 C 50 % 1010,8 hPa 0,0 l/m 11,0 km/h (2 Bft) W-SW 1,00 h 0,279 mm 1,4 UV-I 277 W/m 8,3 C 17,4 C 17,1 km/h (3 Bft)
19.08.2014 18:00 18,2 C 53 % 1010,8 hPa 0,0 l/m 9,1 km/h (2 Bft) W-SW 0,80 h 0,229 mm 0,7 UV-I 115 W/m 8,6 C 17,1 C 14,0 km/h (3 Bft)
19.08.2014 19:00 17,5 C 57 % 1011,2 hPa 0,0 l/m 8,0 km/h (2 Bft) W 0,13 h 0,127 mm 0,0 UV-I 35 W/m 8,9 C 16,7 C 11,9 km/h (2 Bft)
19.08.2014 20:00 16,4 C 62 % 1011,8 hPa 0,0 l/m 4,4 km/h (1 Bft) W-SW 0,00 h 0,076 mm 0,0 UV-I 8 W/m 9,0 C 16,4 C 7,1 km/h (2 Bft)
19.08.2014 21:00 15,0 C 66 % 1012,5 hPa 0,0 l/m 3,1 km/h (1 Bft) W-SW 0,00 h 0,025 mm 0,0 UV-I 0 W/m 8,6 C 15,0 C 5,6 km/h (1 Bft)
19.08.2014 22:00 13,4 C 72 % 1013,4 hPa 0,0 l/m 7,8 km/h (2 Bft) W-NW 0,00 h 0,025 mm 0,0 UV-I 0 W/m 8,4 C 12,1 C 11,7 km/h (2 Bft)
19.08.2014 23:00 11,5 C 81 % 1013,8 hPa 0,0 l/m 0,4 km/h (0 Bft) W 0,00 h 0,051 mm 0,0 UV-I 0 W/m 8,3 C 11,5 C 1,3 km/h (1 Bft)
20.08.2014 00:00 10,5 C 84 % 1014,0 hPa 0,0 l/m 0,1 km/h (0 Bft) W-NW 0,00 h 0,025 mm 0,0 UV-I 0 W/m 7,9 C 10,5 C 0,3 km/h (0 Bft)
20.08.2014 01:00 9,4 C 88 % 1014,1 hPa 0,0 l/m 0,0 km/h (0 Bft) N 0,00 h 0,000 mm 0,0 UV-I 0 W/m 7,5 C 9,4 C 0,1 km/h (0 Bft)
20.08.2014 02:00 8,5 C 91 % 1014,3 hPa 0,0 l/m 0,7 km/h (0 Bft) O-NO 0,00 h 0,000 mm 0,0 UV-I 0 W/m 7,1 C 8,5 C 1,6 km/h (1 Bft)
20.08.2014 03:00 8,1 C 92 % 1014,6 hPa 0,0 l/m 0,2 km/h (0 Bft) O-SO 0,00 h 0,000 mm 0,0 UV-I 0 W/m 6,9 C 8,1 C 1,0 km/h (0 Bft)
20.08.2014 04:00 7,8 C 93 % 1014,8 hPa 0,0 l/m 0,1 km/h (0 Bft) SW 0,00 h 0,000 mm 0,0 UV-I 0 W/m 6,8 C 7,8 C 0,7 km/h (0 Bft)
20.08.2014 05:00 7,4 C 94 % 1015,1 hPa 0,0 l/m 0,0 km/h (0 Bft) N 0,00 h 0,000 mm 0,0 UV-I 0 W/m 6,5 C 7,4 C 0,1 km/h (0 Bft)
20.08.2014 06:00 7,8 C 95 % 1015,6 hPa 0,0 l/m 0,1 km/h (0 Bft) O-NO 0,00 h 0,000 mm 0,0 UV-I 12 W/m 7,0 C 7,8 C 0,5 km/h (0 Bft)
20.08.2014 07:00 9,0 C 93 % 1016,0 hPa 0,0 l/m 1,1 km/h (1 Bft) O-NO 0,35 h 0,000 mm 0,5 UV-I 52 W/m 8,0 C 9,0 C 2,2 km/h (1 Bft)
20.08.2014 08:00 10,7 C 87 % 1016,3 hPa 0,0 l/m 2,4 km/h (1 Bft) W-SW 1,00 h 0,025 mm 1,0 UV-I 220 W/m 8,5 C 10,6 C 4,4 km/h (1 Bft)
20.08.2014 09:00 13,3 C 72 % 1016,4 hPa 0,0 l/m 5,6 km/h (1 Bft) W-SW 1,00 h 0,102 mm 2,1 UV-I 500 W/m 8,2 C 12,9 C 9,7 km/h (2 Bft)
20.08.2014 10:00 14,4 C 62 % 1016,4 hPa 0,0 l/m 9,5 km/h (2 Bft) W-SW 1,00 h 0,254 mm 2,9 UV-I 546 W/m 7,1 C 12,7 C 14,5 km/h (3 Bft)
20.08.2014 11:00 14,9 C 58 % 1016,4 hPa 0,0 l/m 8,6 km/h (2 Bft) W-SW 1,00 h 0,305 mm 4,0 UV-I 583 W/m 6,8 C 13,7 C 13,3 km/h (3 Bft)
20.08.2014 12:00 16,9 C 51 % 1016,0 hPa 0,0 l/m 6,7 km/h (2 Bft) W 1,00 h 0,356 mm 5,3 UV-I 810 W/m 6,7 C 16,3 C 11,4 km/h (2 Bft)
20.08.2014 13:00 17,9 C 45 % 1015,8 hPa 0,0 l/m 6,7 km/h (2 Bft) W-NW 1,00 h 0,457 mm 5,5 UV-I 791 W/m 5,6 C 17,2 C 11,1 km/h (2 Bft)
20.08.2014 14:00 18,3 C 39 % 1015,6 hPa 0,0 l/m 8,6 km/h (2 Bft) SW 1,00 h 0,483 mm 4,7 UV-I 669 W/m 4,1 C 17,2 C 13,2 km/h (3 Bft)
20.08.2014 15:00 17,3 C 44 % 1015,5 hPa 0,0 l/m 8,2 km/h (2 Bft) W-SW 1,00 h 0,432 mm 2,3 UV-I 278 W/m 5,0 C 16,3 C 12,8 km/h (3 Bft)
20.08.2014 16:00 17,5 C 46 % 1015,3 hPa 0,0 l/m 7,8 km/h (2 Bft) W 1,00 h 0,229 mm 1,8 UV-I 313 W/m 5,7 C 16,7 C 12,4 km/h (3 Bft)
20.08.2014 17:00 17,1 C 47 % 1015,2 hPa 0,0 l/m 7,5 km/h (2 Bft) W-SW 1,00 h 0,229 mm 1,2 UV-I 244 W/m 5,7 C 16,4 C 11,6 km/h (2 Bft)
20.08.2014 18:00 16,4 C 50 % 1015,2 hPa 0,0 l/m 5,8 km/h (2 Bft) W-SW 1,00 h 0,178 mm 0,7 UV-I 110 W/m 6,0 C 16,2 C 9,1 km/h (2 Bft)
20.08.2014 19:00 15,3 C 55 % 1015,1 hPa 0,0 l/m 3,6 km/h (1 Bft) W-NW 0,13 h 0,102 mm 0,0 UV-I 31 W/m 6,2 C 15,3 C 6,3 km/h (2 Bft)
20.08.2014 20:00 13,5 C 66 % 1015,5 hPa 0,0 l/m 0,0 km/h (0 Bft) W-NW 0,00 h 0,051 mm 0,0 UV-I 6 W/m 7,2 C 13,5 C 0,2 km/h (0 Bft)
20.08.2014 21:00 12,1 C 76 % 1015,8 hPa 0,0 l/m 0,1 km/h (0 Bft) O-SO 0,00 h 0,000 mm 0,0 UV-I 0 W/m 8,1 C 12,1 C 1,2 km/h (1 Bft)
20.08.2014 22:00 11,4 C 81 % 1015,8 hPa 0,0 l/m 0,0 km/h (0 Bft) N 0,00 h 0,025 mm 0,0 UV-I 0 W/m 8,3 C 11,4 C 0,6 km/h (0 Bft)
20.08.2014 23:00 11,0 C 84 % 1016,0 hPa 0,0 l/m 0,0 km/h (0 Bft) O 0,00 h 0,025 mm 0,0 UV-I 0 W/m 8,3 C 11,0 C 0,5 km/h (0 Bft)
21.08.2014 00:00 10,8 C 85 % 1015,9 hPa 0,0 l/m 0,0 km/h (0 Bft) N 0,00 h 0,000 mm 0,0 UV-I 0 W/m 8,4 C 10,8 C 0,0 km/h (0 Bft)
21.08.2014 01:00 10,1 C 88 % 1015,9 hPa 0,0 l/m 0,0 km/h (0 Bft) N 0,00 h 0,000 mm 0,0 UV-I 0 W/m 8,1 C 10,1 C 0,1 km/h (0 Bft)
21.08.2014 02:00 9,9 C 90 % 1015,9 hPa 0,0 l/m 0,2 km/h (0 Bft) N-NO 0,00 h 0,000 mm 0,0 UV-I 0 W/m 8,2 C 9,9 C 0,4 km/h (0 Bft)
21.08.2014 03:00 9,9 C 92 % 1015,7 hPa 0,4 l/m 0,6 km/h (0 Bft) O 0,00 h 0,000 mm 0,0 UV-I 0 W/m 8,7 C 9,9 C 1,9 km/h (1 Bft)
21.08.2014 04:00 9,6 C 94 % 1015,7 hPa 0,0 l/m 0,3 km/h (0 Bft) S-SO 0,00 h 0,000 mm 0,0 UV-I 0 W/m 8,7 C 9,6 C 1,0 km/h (0 Bft)
21.08.2014 05:00 9,3 C 95 % 1015,8 hPa 0,0 l/m 0,2 km/h (0 Bft) O-SO 0,00 h 0,000 mm 0,0 UV-I 0 W/m 8,5 C 9,3 C 0,9 km/h (0 Bft)
21.08.2014 06:00 9,3 C 95 % 1016,2 hPa 0,0 l/m 0,0 km/h (0 Bft) N 0,00 h 0,000 mm 0,0 UV-I 8 W/m 8,5 C 9,3 C 0,3 km/h (0 Bft)
21.08.2014 07:00 9,8 C 95 % 1016,3 hPa 0,0 l/m 0,2 km/h (0 Bft) O-SO 0,67 h 0,000 mm 0,0 UV-I 64 W/m 9,0 C 9,8 C 0,5 km/h (0 Bft)
21.08.2014 08:00 11,4 C 91 % 1016,4 hPa 0,0 l/m 0,5 km/h (0 Bft) SO 1,00 h 0,025 mm 0,8 UV-I 229 W/m 9,9 C 11,4 C 1,6 km/h (1 Bft)
21.08.2014 09:00 14,5 C 73 % 1016,4 hPa 0,0 l/m 5,0 km/h (1 Bft) W-SW 1,00 h 0,102 mm 1,8 UV-I 445 W/m 9,6 C 14,1 C 8,4 km/h (2 Bft)
21.08.2014 10:00 14,9 C 62 % 1016,7 hPa 0,0 l/m 8,9 km/h (2 Bft) W-SW 1,00 h 0,254 mm 2,4 UV-I 315 W/m 7,6 C 13,6 C 13,2 km/h (3 Bft)
21.08.2014 11:00 15,9 C 58 % 1016,7 hPa 0,0 l/m 9,3 km/h (2 Bft) W-SW 1,00 h 0,229 mm 3,2 UV-I 430 W/m 7,7 C 14,5 C 14,5 km/h (3 Bft)
21.08.2014 12:00 16,9 C 55 % 1016,5 hPa 0,0 l/m 8,0 km/h (2 Bft) NW 1,00 h 0,279 mm 3,4 UV-I 507 W/m 7,9 C 16,0 C 11,9 km/h (2 Bft)
21.08.2014 13:00 17,3 C 52 % 1016,5 hPa 0,0 l/m 10,2 km/h (2 Bft) W 1,00 h 0,305 mm 3,5 UV-I 490 W/m 7,4 C 15,6 C 15,1 km/h (3 Bft)
21.08.2014 14:00 17,8 C 52 % 1016,4 hPa 0,0 l/m 9,7 km/h (2 Bft) W-NW 1,00 h 0,330 mm 3,1 UV-I 406 W/m 7,6 C 16,3 C 14,5 km/h (3 Bft)
21.08.2014 15:00 18,2 C 46 % 1016,0 hPa 0,0 l/m 8,8 km/h (2 Bft) W-SW 1,00 h 0,305 mm 3,1 UV-I 525 W/m 6,2 C 17,2 C 13,4 km/h (3 Bft)
21.08.2014 16:00 19,1 C 41 % 1015,7 hPa 0,0 l/m 8,2 km/h (2 Bft) W 1,00 h 0,381 mm 2,3 UV-I 519 W/m 5,6 C 18,3 C 12,7 km/h (3 Bft)
21.08.2014 17:00 18,1 C 45 % 1015,7 hPa 0,0 l/m 7,9 km/h (2 Bft) W-NW 1,00 h 0,356 mm 1,1 UV-I 241 W/m 5,9 C 17,3 C 12,2 km/h (2 Bft)
21.08.2014 18:00 17,2 C 49 % 1015,7 hPa 0,0 l/m 6,1 km/h (2 Bft) W 0,58 h 0,203 mm 0,6 UV-I 89 W/m 6,5 C 16,9 C 9,5 km/h (2 Bft)
21.08.2014 19:00 16,0 C 53 % 1015,7 hPa 0,0 l/m 3,0 km/h (1 Bft) W-NW 0,00 h 0,102 mm 0,0 UV-I 25 W/m 6,3 C 16,0 C 4,9 km/h (1 Bft)
21.08.2014 20:00 13,5 C 66 % 1015,8 hPa 0,0 l/m 0,0 km/h (0 Bft) N 0,00 h 0,025 mm 0,0 UV-I 7 W/m 7,2 C 13,5 C 0,1 km/h (0 Bft)
21.08.2014 21:00 11,0 C 79 % 1016,4 hPa 0,0 l/m 0,8 km/h (0 Bft) O 0,00 h 0,000 mm 0,0 UV-I 0 W/m 7,6 C 11,0 C 1,8 km/h (1 Bft)
21.08.2014 22:00 9,5 C 87 % 1016,6 hPa 0,0 l/m 0,2 km/h (0 Bft) O 0,00 h 0,025 mm 0,0 UV-I 0 W/m 7,4 C 9,5 C 1,0 km/h (0 Bft)
21.08.2014 23:00 8,4 C 89 % 1016,7 hPa 0,0 l/m 0,0 km/h (0 Bft) O 0,00 h 0,000 mm 0,0 UV-I 0 W/m 6,8 C 8,4 C 0,3 km/h (0 Bft)
22.08.2014 00:00 7,7 C 91 % 1016,7 hPa 0,0 l/m 0,0 km/h (0 Bft) N 0,00 h 0,000 mm 0,0 UV-I 0 W/m 6,3 C 7,7 C 0,0 km/h (0 Bft)
22.08.2014 01:00 7,4 C 92 % 1016,5 hPa 0,0 l/m 0,0 km/h (0 Bft) N 0,00 h 0,000 mm 0,0 UV-I 0 W/m 6,2 C 7,4 C 0,0 km/h (0 Bft)
22.08.2014 02:00 7,4 C 92 % 1016,3 hPa 0,0 l/m 0,2 km/h (0 Bft) O-SO 0,00 h 0,000 mm 0,0 UV-I 0 W/m 6,2 C 7,4 C 0,7 km/h (0 Bft)
22.08.2014 03:00 7,6 C 91 % 1016,1 hPa 0,0 l/m 0,0 km/h (0 Bft) O 0,00 h 0,000 mm 0,0 UV-I 0 W/m 6,3 C 7,6 C 0,3 km/h (0 Bft)
22.08.2014 04:00 7,2 C 93 % 1015,9 hPa 0,0 l/m 0,0 km/h (0 Bft) N 0,00 h 0,000 mm 0,0 UV-I 0 W/m 6,2 C 7,2 C 0,0 km/h (0 Bft)
22.08.2014 05:00 6,9 C 94 % 1015,8 hPa 0,0 l/m 0,1 km/h (0 Bft) O 0,00 h 0,000 mm 0,0 UV-I 0 W/m 6,0 C 6,9 C 0,7 km/h (0 Bft)
22.08.2014 06:00 6,6 C 95 % 1015,7 hPa 0,0 l/m 0,0 km/h (0 Bft) N 0,00 h 0,000 mm 0,0 UV-I 15 W/m 5,8 C 6,6 C 0,1 km/h (0 Bft)
22.08.2014 07:00 7,6 C 93 % 1015,7 hPa 0,0 l/m 0,1 km/h (0 Bft) W-SW 0,28 h 0,000 mm 0,5 UV-I 56 W/m 6,6 C 7,6 C 0,6 km/h (0 Bft)
22.08.2014 08:00 10,2 C 87 % 1015,8 hPa 0,0 l/m 0,6 km/h (0 Bft) NW 1,00 h 0,025 mm 0,7 UV-I 139 W/m 8,2 C 10,2 C 1,7 km/h (1 Bft)
22.08.2014 09:00 11,7 C 82 % 1015,9 hPa 0,0 l/m 0,2 km/h (0 Bft) SO 1,00 h 0,076 mm 1,1 UV-I 178 W/m 8,7 C 11,7 C 1,1 km/h (1 Bft)
22.08.2014 10:00 13,9 C 73 % 1016,0 hPa 0,0 l/m 2,4 km/h (1 Bft) SW 1,00 h 0,076 mm 1,8 UV-I 250 W/m 9,1 C 13,9 C 4,7 km/h (1 Bft)
22.08.2014 11:00 15,8 C 63 % 1015,8 hPa 0,0 l/m 3,3 km/h (1 Bft) S-SO 1,00 h 0,152 mm 3,1 UV-I 460 W/m 8,7 C 15,8 C 5,9 km/h (2 Bft)
22.08.2014 12:00 14,6 C 72 % 1015,6 hPa 0,2 l/m 5,0 km/h (1 Bft) S-SO 1,00 h 0,254 mm 1,8 UV-I 225 W/m 9,5 C 14,5 C 7,8 km/h (2 Bft)
22.08.2014 13:00 15,9 C 65 % 1015,3 hPa 0,0 l/m 4,2 km/h (1 Bft) S 1,00 h 0,127 mm 2,7 UV-I 321 W/m 9,3 C 15,8 C 6,9 km/h (2 Bft)
22.08.2014 14:00 17,2 C 58 % 1014,9 hPa 0,0 l/m 6,2 km/h (2 Bft) S 1,00 h 0,229 mm 2,8 UV-I 432 W/m 8,8 C 16,8 C 9,6 km/h (2 Bft)
22.08.2014 15:00 17,3 C 55 % 1014,8 hPa 0,0 l/m 8,3 km/h (2 Bft) W 1,00 h 0,254 mm 2,4 UV-I 400 W/m 8,1 C 16,3 C 12,9 km/h (3 Bft)
22.08.2014 16:00 18,3 C 48 % 1014,5 hPa 0,0 l/m 8,1 km/h (2 Bft) W 1,00 h 0,254 mm 2,3 UV-I 482 W/m 7,1 C 17,4 C 12,7 km/h (3 Bft)
22.08.2014 17:00 17,5 C 46 % 1014,2 hPa 0,0 l/m 8,1 km/h (2 Bft) W-SW 1,00 h 0,305 mm 1,2 UV-I 242 W/m 5,7 C 16,5 C 13,0 km/h (3 Bft)
22.08.2014 18:00 17,6 C 47 % 1013,8 hPa 0,0 l/m 6,4 km/h (2 Bft) W 1,00 h 0,203 mm 0,6 UV-I 155 W/m 6,2 C 17,2 C 10,4 km/h (2 Bft)
22.08.2014 19:00 16,5 C 49 % 1013,8 hPa 0,0 l/m 3,4 km/h (1 Bft) SW 0,20 h 0,127 mm 0,0 UV-I 30 W/m 5,8 C 16,5 C 6,0 km/h (2 Bft)
22.08.2014 20:00 14,9 C 57 % 1014,0 hPa 0,0 l/m 0,7 km/h (0 Bft) S 0,00 h 0,051 mm 0,0 UV-I 5 W/m 6,5 C 14,9 C 1,9 km/h (1 Bft)
22.08.2014 21:00 12,9 C 71 % 1014,3 hPa 0,0 l/m 0,5 km/h (0 Bft) O 0,00 h 0,000 mm 0,0 UV-I 0 W/m 7,8 C 12,9 C 1,7 km/h (1 Bft)
22.08.2014 22:00 10,9 C 80 % 1014,6 hPa 0,0 l/m 0,2 km/h (0 Bft) O-NO 0,00 h 0,025 mm 0,0 UV-I 0 W/m 7,6 C 10,9 C 0,6 km/h (0 Bft)
22.08.2014 23:00 9,0 C 89 % 1014,7 hPa 0,0 l/m 0,1 km/h (0 Bft) O-NO 0,00 h 0,025 mm 0,0 UV-I 0 W/m 7,3 C 9,0 C 0,8 km/h (0 Bft)
23.08.2014 00:00 8,6 C 90 % 1014,8 hPa 0,0 l/m 0,4 km/h (0 Bft) O 0,00 h 0,000 mm 0,0 UV-I 0 W/m 7,0 C 8,6 C 1,4 km/h (1 Bft)
23.08.2014 01:00 7,8 C 91 % 1014,6 hPa 0,0 l/m 0,0 km/h (0 Bft) N 0,00 h 0,000 mm 0,0 UV-I 0 W/m 6,4 C 7,8 C 0,5 km/h (0 Bft)
23.08.2014 02:00 6,8 C 92 % 1014,3 hPa 0,0 l/m 0,0 km/h (0 Bft) N 0,00 h 0,000 mm 0,0 UV-I 0 W/m 5,6 C 6,8 C 0,0 km/h (0 Bft)
23.08.2014 03:00 6,2 C 93 % 1014,2 hPa 0,0 l/m 0,1 km/h (0 Bft) O-NO 0,00 h 0,000 mm 0,0 UV-I 0 W/m 5,3 C 6,2 C 0,5 km/h (0 Bft)
23.08.2014 04:00 5,7 C 94 % 1014,1 hPa 0,0 l/m 0,1 km/h (0 Bft) NO 0,00 h 0,000 mm 0,0 UV-I 0 W/m 4,7 C 5,7 C 0,2 km/h (0 Bft)
23.08.2014 05:00 5,4 C 94 % 1014,2 hPa 0,0 l/m 0,0 km/h (0 Bft) N 0,00 h 0,000 mm 0,0 UV-I 0 W/m 4,5 C 5,4 C 0,1 km/h (0 Bft)
23.08.2014 06:00 6,1 C 94 % 1014,4 hPa 0,0 l/m 0,1 km/h (0 Bft) N 0,00 h 0,000 mm 0,0 UV-I 9 W/m 5,2 C 6,1 C 0,4 km/h (0 Bft)
23.08.2014 07:00 7,6 C 92 % 1014,6 hPa 0,0 l/m 0,1 km/h (0 Bft) NO 0,32 h 0,000 mm 0,0 UV-I 41 W/m 6,5 C 7,6 C 0,9 km/h (0 Bft)
23.08.2014 08:00 10,0 C 88 % 1014,3 hPa 0,0 l/m 0,2 km/h (0 Bft) SO 1,00 h 0,025 mm 0,7 UV-I 108 W/m 8,2 C 10,0 C 1,0 km/h (0 Bft)
23.08.2014 09:00 12,1 C 82 % 1014,3 hPa 0,0 l/m 0,4 km/h (0 Bft) S-SW 1,00 h 0,051 mm 0,8 UV-I 109 W/m 9,0 C 12,1 C 1,5 km/h (1 Bft)
23.08.2014 10:00 13,1 C 76 % 1014,4 hPa 0,0 l/m 1,7 km/h (1 Bft) S-SO 1,00 h 0,051 mm 1,1 UV-I 126 W/m 8,9 C 13,1 C 3,4 km/h (1 Bft)
23.08.2014 11:00 14,6 C 71 % 1014,4 hPa 0,0 l/m 3,4 km/h (1 Bft) S-SO 1,00 h 0,076 mm 2,7 UV-I 306 W/m 9,3 C 14,5 C 5,9 km/h (2 Bft)
23.08.2014 12:00 16,1 C 65 % 1014,3 hPa 0,0 l/m 9,4 km/h (2 Bft) S 1,00 h 0,178 mm 3,2 UV-I 393 W/m 9,4 C 14,7 C 14,5 km/h (3 Bft)
23.08.2014 13:00 16,8 C 61 % 1014,0 hPa 0,0 l/m 8,5 km/h (2 Bft) S 1,00 h 0,254 mm 2,6 UV-I 312 W/m 9,3 C 15,7 C 13,3 km/h (3 Bft)
23.08.2014 14:00 16,2 C 62 % 1013,9 hPa 0,0 l/m 9,4 km/h (2 Bft) W-NW 1,00 h 0,203 mm 1,3 UV-I 162 W/m 8,9 C 14,7 C 14,4 km/h (3 Bft)
23.08.2014 15:00 16,7 C 63 % 1013,6 hPa 0,0 l/m 6,7 km/h (2 Bft) W 1,00 h 0,127 mm 2,3 UV-I 323 W/m 9,7 C 16,1 C 10,4 km/h (2 Bft)
23.08.2014 16:00 15,1 C 72 % 1013,7 hPa 0,0 l/m 7,2 km/h (2 Bft) W 1,00 h 0,203 mm 0,8 UV-I 110 W/m 10,1 C 14,3 C 11,2 km/h (2 Bft)
23.08.2014 17:00 15,0 C 74 % 1013,6 hPa 0,0 l/m 5,7 km/h (1 Bft) W-SW 1,00 h 0,076 mm 0,8 UV-I 131 W/m 10,4 C 14,7 C 8,8 km/h (2 Bft)
23.08.2014 18:00 14,8 C 74 % 1013,3 hPa 0,0 l/m 5,7 km/h (1 Bft) W-SW 1,00 h 0,076 mm 0,6 UV-I 101 W/m 10,2 C 14,4 C 9,0 km/h (2 Bft)
23.08.2014 19:00 14,8 C 74 % 1013,3 hPa 0,0 l/m 6,1 km/h (2 Bft) W-SW 0,43 h 0,076 mm 0,0 UV-I 45 W/m 10,3 C 14,3 C 9,8 km/h (2 Bft)
23.08.2014 20:00 13,8 C 80 % 1013,7 hPa 1,0 l/m 3,8 km/h (1 Bft) SW 0,00 h 0,051 mm 0,0 UV-I 6 W/m 10,4 C 13,5 C 6,9 km/h (2 Bft)
23.08.2014 21:00 12,1 C 91 % 1014,3 hPa 0,4 l/m 4,9 km/h (1 Bft) W 0,00 h 0,025 mm 0,0 UV-I 0 W/m 10,7 C 11,6 C 8,1 km/h (2 Bft)
23.08.2014 22:00 11,5 C 93 % 1014,7 hPa 0,2 l/m 0,9 km/h (0 Bft) W 0,00 h 0,000 mm 0,0 UV-I 0 W/m 10,5 C 11,5 C 2,3 km/h (1 Bft)
23.08.2014 23:00 11,0 C 94 % 1014,9 hPa 0,0 l/m 2,7 km/h (1 Bft) W-SW 0,00 h 0,000 mm 0,0 UV-I 0 W/m 10,1 C 11,0 C 5,2 km/h (1 Bft)
24.08.2014 00:00 11,0 C 94 % 1014,8 hPa 0,0 l/m 3,6 km/h (1 Bft) SW 0,00 h 0,000 mm 0,0 UV-I 0 W/m 10,1 C 11,0 C 7,0 km/h (2 Bft)
24.08.2014 01:00 10,9 C 95 % 1014,6 hPa 0,0 l/m 2,8 km/h (1 Bft) W-SW 0,00 h 0,000 mm 0,0 UV-I 0 W/m 10,0 C 10,8 C 5,4 km/h (1 Bft)
24.08.2014 02:00 10,8 C 94 % 1014,7 hPa 0,0 l/m 5,0 km/h (1 Bft) W-SW 0,00 h 0,000 mm 0,0 UV-I 0 W/m 9,9 C 10,7 C 8,3 km/h (2 Bft)
24.08.2014 03:00 10,5 C 94 % 1014,8 hPa 0,0 l/m 4,1 km/h (1 Bft) W 0,00 h 0,000 mm 0,0 UV-I 0 W/m 9,5 C 10,4 C 7,2 km/h (2 Bft)
24.08.2014 04:00 10,0 C 94 % 1014,6 hPa 0,0 l/m 2,7 km/h (1 Bft) W-SW 0,00 h 0,000 mm 0,0 UV-I 0 W/m 9,1 C 10,0 C 5,1 km/h (1 Bft)
24.08.2014 05:00 9,6 C 95 % 1015,2 hPa 0,0 l/m 2,0 km/h (1 Bft) W 0,00 h 0,000 mm 0,0 UV-I 0 W/m 8,8 C 9,6 C 3,7 km/h (1 Bft)
24.08.2014 06:00 9,7 C 95 % 1015,6 hPa 0,4 l/m 2,4 km/h (1 Bft) W-NW 0,00 h 0,000 mm 0,0 UV-I 13 W/m 8,8 C 9,7 C 4,4 km/h (1 Bft)
24.08.2014 07:00 9,2 C 95 % 1016,2 hPa 3,0 l/m 2,1 km/h (1 Bft) W-SW 0,13 h 0,000 mm 0,0 UV-I 32 W/m 8,4 C 9,1 C 3,7 km/h (1 Bft)
24.08.2014 08:00 9,7 C 95 % 1016,8 hPa 0,0 l/m 1,9 km/h (1 Bft) W-NW 0,92 h 0,000 mm 0,7 UV-I 118 W/m 9,0 C 9,7 C 3,6 km/h (1 Bft)
24.08.2014 09:00 11,4 C 89 % 1017,4 hPa 0,0 l/m 7,9 km/h (2 Bft) W 1,00 h 0,051 mm 1,3 UV-I 331 W/m 9,6 C 10,3 C 12,2 km/h (2 Bft)
24.08.2014 10:00 12,8 C 77 % 1017,9 hPa 0,0 l/m 8,8 km/h (2 Bft) NW 1,00 h 0,178 mm 2,2 UV-I 367 W/m 8,9 C 11,3 C 13,4 km/h (3 Bft)
24.08.2014 11:00 12,9 C 72 % 1018,3 hPa 0,0 l/m 9,4 km/h (2 Bft) W 1,00 h 0,229 mm 2,7 UV-I 407 W/m 8,0 C 11,2 C 14,7 km/h (3 Bft)
24.08.2014 12:00 11,9 C 82 % 1018,4 hPa 1,4 l/m 7,1 km/h (2 Bft) NW 0,97 h 0,229 mm 3,0 UV-I 421 W/m 8,8 C 10,9 C 11,7 km/h (2 Bft)
24.08.2014 13:00 14,3 C 72 % 1018,1 hPa 0,0 l/m 8,0 km/h (2 Bft) W 1,00 h 0,229 mm 4,0 UV-I 509 W/m 9,3 C 13,1 C 12,4 km/h (3 Bft)
24.08.2014 14:00 13,8 C 71 % 1018,1 hPa 0,0 l/m 9,3 km/h (2 Bft) W 1,00 h 0,305 mm 2,9 UV-I 429 W/m 8,5 C 12,2 C 14,4 km/h (3 Bft)
24.08.2014 15:00 13,6 C 65 % 1018,1 hPa 0,0 l/m 11,5 km/h (2 Bft) W-SW 1,00 h 0,254 mm 1,9 UV-I 320 W/m 7,0 C 11,0 C 17,3 km/h (3 Bft)
24.08.2014 16:00 14,2 C 65 % 1018,1 hPa 0,0 l/m 7,3 km/h (2 Bft) N 1,00 h 0,203 mm 1,8 UV-I 391 W/m 7,7 C 13,4 C 11,5 km/h (2 Bft)
24.08.2014 17:00 14,4 C 64 % 1018,1 hPa 0,0 l/m 6,4 km/h (2 Bft) W-NW 1,00 h 0,229 mm 1,2 UV-I 265 W/m 7,5 C 13,7 C 10,4 km/h (2 Bft)
24.08.2014 18:00 13,1 C 66 % 1018,2 hPa 0,0 l/m 8,2 km/h (2 Bft) N-NW 0,72 h 0,178 mm 0,6 UV-I 66 W/m 6,9 C 11,7 C 12,7 km/h (3 Bft)
24.08.2014 19:00 12,1 C 74 % 1018,5 hPa 0,0 l/m 1,1 km/h (1 Bft) O-NO 0,23 h 0,076 mm 0,0 UV-I 32 W/m 7,6 C 12,1 C 2,6 km/h (1 Bft)
24.08.2014 20:00 10,9 C 82 % 1018,9 hPa 0,0 l/m 0,3 km/h (0 Bft) O-NO 0,00 h 0,025 mm 0,0 UV-I 0 W/m 8,0 C 10,9 C 1,2 km/h (1 Bft)
24.08.2014 21:00 10,3 C 86 % 1019,4 hPa 0,0 l/m 0,1 km/h (0 Bft) O-NO 0,00 h 0,000 mm 0,0 UV-I 0 W/m 8,0 C 10,3 C 1,1 km/h (1 Bft)
24.08.2014 22:00 9,1 C 90 % 1019,5 hPa 0,0 l/m 0,6 km/h (0 Bft) O-NO 0,00 h 0,000 mm 0,0 UV-I 0 W/m 7,6 C 9,1 C 1,3 km/h (1 Bft)
24.08.2014 23:00 8,9 C 91 % 1019,4 hPa 0,0 l/m 0,8 km/h (0 Bft) O 0,00 h 0,000 mm 0,0 UV-I 0 W/m 7,5 C 8,9 C 1,9 km/h (1 Bft)
Min-Datum _ 21.08.14 20.08.14 18.08.14 - 18.08.14 - - - - - 20.08.14 23.08.14 18.08.14
_ Min-Zeit 08:29 14:35 14:20 - 00:13 - - - - - 14:35 05:24 07:37
Minimum _ 0,0 C 35 % 1007,8 hPa - 0,0 km/h (0 Bft) - - - - - 2,5 C 5,2 C 0,0 km/h (0 Bft)
Max-Datum _ 19.08.14 19.08.14 24.08.14 24.08.14 18.08.14 - 18.08.14 20.08.14 18.08.14 19.08.14 19.08.14 19.08.14 18.08.14
_ Max-Zeit 15:20 02:19 21:51 07:00 17:34 - 12:15 14:00 12:36 12:36 10:41 15:17 15:01
Maximum _ 20,1 C 96 % 1019,6 hPa 3,0 l/m 27,4 km/h
W (4 Bft)
- 0,10 h 0,483 mm 6,7 UV-I 1072 W/m 11,6 C 19,9 C 46,7 km/h
W-SW (6 Bft)
Durchschnitt _ 12,8 C 76 % 1014,2 hPa #7,4 l/m 4,6 km/h (1 Bft) W-SW #78:50 h #17,221 mm 2,0 UV-I 249 W/m 8,3 C 12,2 C 7,6 km/h (2 Bft)